Sierra Nevada Aquatic Research Lab (SNARL) Reserve, Santa Monica Mtns, California Weather observations

Data are for 10 minute period ending at time listed.
 Day   Time   Solar   Ave.   Ave.  Ave.  Vector  Max.   Baro.   Total    
  of    of     Rad.   Air    Rel.  Wind   Wind   Wind  Press.  Precip.   
Year   Day            Temp.  Hum.  Speed  Dir.   Gust                    
2015   (PST)  Kw/m2    F      %     mph   deg.    mph    mb.     in.     
-------------------------------------------------------------------------
  85    5:50   0.00   22.0    75    1.0   265     1.9   791.6    0.00 
  85    6:00   0.00   20.6    76    0.9   123     2.9   791.6    0.00 
  85    6:10   0.01   20.8    78    1.5    87     2.8   791.6    0.00 
  85    6:20   0.03   23.8    75    1.4    93     3.0   791.7    0.00 
  85    6:30   0.06   26.1    72    1.3    80     2.9   791.9    0.00 
  85    6:40   0.11   28.9    68    0.7   235     1.8   792.0    0.00 
  85    6:50   0.15   32.4    62    1.4   216     2.2   792.1    0.00 
  85    7:00   0.18   36.5    54    0.1   223     1.0   792.2    0.00 
  85    7:10   0.22   41.4    47    0.2   224     1.1   792.2    0.00 
  85    7:20   0.25   42.0    46    1.4   337     3.7   792.2    0.00 
  85    7:30   0.29   42.4    46    1.7   353     3.1   792.3    0.00 
  85    7:40   0.33   43.6    44    2.4    53     4.5   792.4    0.00 
  85    7:50   0.34   43.9    44    2.9    53     5.0   792.4    0.00 
  85    8:00   0.40   43.9    44    1.8    65     4.1   792.3    0.00 
  85    8:10   0.43   45.9    42    2.0    49     3.6   792.2    0.00 
  85    8:20   0.47   47.5    39    2.0    79     4.0   792.2    0.00 
  85    8:30   0.50   49.3    37    2.1    60     4.5   792.2    0.00 
  85    8:40   0.53   50.3    36    3.1    47     5.4   792.2    0.00 
  85    8:50   0.57   50.8    35    3.9    47     6.4   792.2    0.00 
  85    9:00   0.60   51.0    35    4.1    72     6.6   792.1    0.00 
  85    9:10   0.63   52.4    34    4.0    56     6.9   792.1    0.00 
  85    9:20   0.66   53.7    33    4.0    58     7.9   792.1    0.00 
  85    9:30   0.68   54.4    31    4.2    77     7.0   792.1    0.00 
  85    9:40   0.71   55.2    30    4.4    54     7.6   792.0    0.00 
  85    9:50   0.73   56.5    28    4.2    72     8.0   792.0    0.00 
  85   10:00   0.76   57.3    25    3.3    57     8.3   791.9    0.00 
  85   10:10   0.78   57.8    24    4.1    94     8.7   792.0    0.00 
  85   10:20   0.80   58.1    24    3.8    71     7.8   792.0    0.00 
  85   10:30   0.81   58.6    24    3.5   196     8.6   791.9    0.00 
  85   10:40   0.83   59.2    24    3.9    64     7.8   791.8    0.00 
  85   10:50   0.85   59.1    24    3.5    33     9.1   791.9    0.00 
  85   11:00   0.86   60.4    22    3.0   353     7.0   791.8    0.00 
  85   11:10   0.87   60.8    22    5.2    88     8.6   791.7    0.00 
  85   11:20   0.88   61.3    22    3.6    31    10.1   791.7    0.00 
  85   11:30   0.88   61.6    21    4.3    71    11.6   791.6    0.00 
  85   11:40   0.90   62.1    20    5.1    54    11.3   791.6    0.00 
  85   11:50   0.90   62.0    20    4.9    63    11.2   791.5    0.00 
  85   12:00   0.89   62.8    20    2.9   337     6.9   791.5    0.00 
  85   12:10   0.90   64.3    19    5.4    36    10.5   791.4    0.00 
  85   12:20   0.90   65.0    18    5.9    78    11.2   791.3    0.00 
  85   12:30   0.89   63.9    18    5.9    89    15.0   791.2    0.00 
  85   12:40   0.88   65.3    18    6.2    94    13.5   791.1    0.00 
  85   12:50   0.88   65.2    18    7.6    89    12.7   790.9    0.00 
  85   13:00   0.87   65.0    18    7.0    98    15.9   790.8    0.00 
  85   13:10   0.86   65.2    18    6.7   121    14.3   790.6    0.00 
  85   13:20   0.85   65.8    18    6.9   106    12.1   790.5    0.00 
  85   13:30   0.83   65.9    18    6.8    88    13.3   790.3    0.00 
  85   13:40   0.81   66.0    18    7.7   119    15.9   790.1    0.00 
  85   13:50   0.80   66.9    18    6.0    97    12.7   790.0    0.00 
  85   14:00   0.78   67.3    18    6.6    94    12.6   789.8    0.00 
  85   14:10   0.75   67.7    17    8.1   116    12.3   789.7    0.00 
  85   14:20   0.73   67.5    17    6.3    85    10.6   789.7    0.00 
  85   14:30   0.71   67.3    17    6.4   104    12.1   789.6    0.00 
  85   14:40   0.68   68.0    16    7.8    76    16.1   789.5    0.00 
  85   14:50   0.66   67.3    16    7.9    88    12.6   789.5    0.00 
  85   15:00   0.62   67.2    15    8.1    92    13.8   789.4    0.00 
  85   15:10   0.60   67.6    16    7.7    95    14.0   789.4    0.00 
  85   15:20   0.56   67.0    16    9.1    83    16.8   789.4    0.00 
  85   15:30   0.53   66.8    16    9.6   100    14.9   789.4    0.00 
  85   15:40   0.50   67.1    16    9.3    88    13.7   789.3    0.00 
  85   15:50   0.47   66.3    16    9.0    92    14.5   789.3    0.00 
  85   16:00   0.43   66.3    17   10.2    99    14.7   789.3    0.00 
  85   16:10   0.40   66.0    17   11.8    95    15.5   789.3    0.00 
  85   16:20   0.36   65.4    17   11.0   100    16.0   789.3    0.00 
  85   16:30   0.32   65.2    18   10.9   108    15.7   789.3    0.00 
  85   16:40   0.28   65.0    18   10.8    97    15.7   789.3    0.00 
  85   16:50   0.25   64.6    18   10.3   100    13.7   789.3    0.00 
  85   17:00   0.21   64.1    18    9.6   112    14.3   789.3    0.00 
  85   17:10   0.18   63.2    18    9.5   110    13.6   789.3    0.00 
  85   17:20   0.15   62.6    19    9.7   108    14.0   789.3    0.00 
  85   17:30   0.11   61.9    19    8.8   110    12.6   789.3    0.00 
  85   17:40   0.08   61.1    20    8.6   108    11.8   789.2    0.00 
  85   17:50   0.04   60.2    20    8.0   109    11.0   789.2    0.00 
  85   18:00   0.01   58.5    21    7.6   111    10.0   789.2    0.00 
  85   18:10   0.00   56.4    23    6.4   117     8.0   789.3    0.00 
  85   18:20   0.00   54.2    24    5.2   122     8.5   789.2    0.00 
  85   18:30   0.00   51.9    26    1.7    76     3.8   789.1    0.00 
  85   18:40   0.00   49.9    27    1.5   332     3.4   789.2    0.00 
  85   18:50   0.00   49.6    27    3.2   260     5.5   789.4    0.00 
  85   19:00   0.00   48.3    28    5.1   248     6.5   789.5    0.00 
  85   19:10   0.00   47.2    29    4.5   240     6.2   789.7    0.00 
  85   19:20   0.00   47.2    34    3.7   272     6.2   789.9    0.00 
  85   19:30   0.00   47.2    33    1.6   166     4.0   790.0    0.00 
  85   19:40   0.00   45.7    35    2.8   306     5.1   790.2    0.00 
  85   19:50   0.00   41.9    38    2.1   241     4.2   790.3    0.00 
  85   20:00   0.00   41.6    38    4.9   239     7.7   790.4    0.00 
  85   20:10   0.00   42.8    41    5.1   234     8.0   790.5    0.00 
  85   20:20   0.00   44.7    40    2.8   230     5.8   790.6    0.00 
  85   20:30   0.00   44.8    44    2.0   347     3.4   790.8    0.00 
  85   20:40   0.00   42.4    47    2.5   312     5.0   790.9    0.00 
  85   20:50   0.00   40.9    49    2.8   293     4.4   791.0    0.00 
  85   21:00   0.00   38.5    48    0.6   282     3.5   791.1    0.00 
  85   21:10   0.00   36.3    52    1.7   253     3.8   791.1    0.00 
  85   21:20   0.00   37.1    52    2.0   314     4.3   791.2    0.00 
  85   21:30   0.00   34.5    53    1.1   243     3.4   791.3    0.00 
  85   21:40   0.00   35.5    52    1.5   328     3.2   791.4    0.00 
  85   21:50   0.00   35.0    54    0.7   301     3.7   791.6    0.00 
  85   22:00   0.00   34.4    54    0.6   266     1.4   791.6    0.00 
  85   22:10   0.00   32.9    57    0.2   255     1.2   791.6    0.00 
  85   22:20   0.00   33.1    58    1.3   250     2.3   791.6    0.00 
  85   22:30   0.00   33.8    55    0.1   200     1.0   791.6    0.00 
  85   22:40   0.00   32.6    56    1.9   128     3.1   791.5    0.00 
  85   22:50   0.00   33.8    55    0.7   115     3.0   791.5    0.00 
  85   23:00   0.00   33.0    57    0.1    76     0.9   791.5    0.00 
  85   23:10   0.00   32.1    56    0.9   265     2.5   791.6    0.00 
  85   23:20   0.00   31.3    55    1.0   203     2.4   791.5    0.00 
  85   23:30   0.00   30.8    59    0.5   283     2.3   791.5    0.00 
  85   23:40   0.00   31.4    57    0.7   262     1.5   791.5    0.00 
  85   23:50   0.00   31.3    58    1.0   302     3.1   791.5    0.00 
  86    0:00   0.00   30.9    57    1.6   302     4.5   791.5    0.00 
  86    0:10   0.00   29.9    59    0.6   311     3.9   791.4    0.00 
  86    0:20   0.00   29.8    61    0.1     2     1.3   791.4    0.00 
  86    0:30   0.00   29.0    59    0.3   176     1.3   791.4    0.00 
  86    0:40   0.00   28.6    61    0.4   183     1.2   791.3    0.00 
  86    0:50   0.00   28.4    61    0.2   169     1.4   791.3    0.00 
  86    1:00   0.00   27.6    62    0.7   238     2.0   791.2    0.00 
  86    1:10   0.00   27.3    63    0.8   240     2.6   791.2    0.00 
  86    1:20   0.00   29.7    60    0.5   239     1.8   791.2    0.00 
  86    1:30   0.00   28.6    62    0.2   190     1.6   791.1    0.00 
  86    1:40   0.00   28.6    62    0.6   199     1.5   790.9    0.00 
  86    1:50   0.00   27.9    62    0.9   224     2.3   790.9    0.00 
  86    2:00   0.00   26.9    65    0.3   167     1.5   790.9    0.00 
  86    2:10   0.00   27.0    65    0.5   236     1.4   790.8    0.00 
  86    2:20   0.00   26.9    65    0.5   235     1.9   790.8    0.00 
  86    2:30   0.00   27.9    65    1.4   322     4.7   790.7    0.00 
  86    2:40   0.00   26.8    65    1.6   271     2.8   790.7    0.00 
  86    2:50   0.00   25.8    67    1.5   167     2.1   790.7    0.00 
  86    3:00   0.00   26.0    70    0.9   143     2.2   790.7    0.00 
  86    3:10   0.00   27.4    68    0.4   139     2.0   790.6    0.00 
  86    3:20   0.00   25.3    68    1.0   198     2.0   790.6    0.00 
  86    3:30   0.00   25.8    70    1.9   220     2.8   790.7    0.00 
  86    3:40   0.00   25.8    70    1.2   263     2.3   790.6    0.00 
  86    3:50   0.00   26.8    69    1.8   294     3.4   790.6    0.00 
  86    4:00   0.00   25.2    72    1.8   248     3.5   790.5    0.00 
  86    4:10   0.00   26.4    73    1.8   319     3.3   790.5    0.00 
  86    4:20   0.00   25.8    72    0.4   254     2.3   790.5    0.00 
  86    4:30   0.00   25.9    71    0.8   293     2.4   790.5    0.00 
  86    4:40   0.00   26.2    70    2.3   295     5.0   790.5    0.00 
  86    4:50   0.00   24.9    72    0.3   134     1.6   790.4    0.00 
  86    5:00   0.00   24.5    75    0.8   286     2.5   790.5    0.00 
  86    5:10   0.00   24.7    74    0.7    96     2.3   790.5    0.00 
  86    5:20   0.00   24.8    74    0.7   219     2.3   790.6    0.00 
  86    5:30   0.00   24.1    74    1.8   224     3.7   790.6    0.00 
  86    5:40   0.00   23.2    76    2.3   238     4.1   790.6    0.00 

Return to SNARL Reserve graphs page.


Western Regional Climate Center,wrcc@dri.edu